• Join FlightAware (Why Join?)
  • Login
  • US Flag 
08:17AM EDT


 

Airport Tracker/Info


-or-


 

Live Flight TrackerFlight Track Log ✈ NKS341 ✈ 18-Jun-2013 ✈ KACY - KTPA

Flight Track Log - Related Links

Times and Time Zones

All times are in EDT time to prevent confusion due to time zone crossing. See the NKS341 flight status page for this flight to view local times or setup timezone preferences in your user account.

Time Position Orientation Groundspeed Altitude Reporting Facility
EDT Latitude Longitude Course Direction KTS MPH feet Rate Location/Type
10:34AM 39.4390 -74.5273 115° Southeast 174 200 1,800  Level FlightAware ADS-B
10:34AM 39.4330 -74.5099 114° Southeast 184 212 2,100 1,620 Climbing FlightAware ADS-B
10:35AM 39.4246 -74.4935 124° Southeast 209 241 2,700 2,400 Climbing FlightAware ADS-B
10:35AM 39.4121 -74.4869 158° South 208 239 3,300 2,400 Climbing FlightAware ADS-B
10:35AM 39.4071 -74.4866 177° South 213 245 3,500 1,740 Climbing FlightAware ADS-B
10:35AM 39.3959 -74.4902 194° South 225 259 3,800 1,980 Climbing FlightAware ADS-B
10:35AM 39.3923 -74.4932 213° Southwest 231 266 4,000 2,520 Climbing FlightAware ADS-B
10:35AM 39.3897 -74.4958 218° Southwest 235 270 4,100 1,680 Climbing FlightAware ADS-B
10:35AM 39.3868 -74.4991 221° Southwest 239 275 4,200 2,100 Climbing FlightAware ADS-B
10:36AM 39.3731 -74.5155 223° Southwest 259 298 4,800 2,520 Climbing FlightAware ADS-B
10:36AM 39.3624 -74.5285 223° Southwest 264 304 5,400 3,060 Climbing FlightAware ADS-B
10:36AM 39.3469 -74.5476 224° Southwest 269 310 6,300 2,460 Climbing FlightAware ADS-B
10:36AM 39.3320 -74.5661 224° Southwest 272 313 6,800 1,860 Climbing FlightAware ADS-B
10:37AM 39.3183 -74.5834 224° Southwest 272 313 7,300 2,520 Climbing FlightAware ADS-B
10:37AM 39.3129 -74.5902 224° Southwest 275 316 7,700 3,600 Climbing FlightAware ADS-B
10:37AM 39.2974 -74.6098 224° Southwest 274 315 8,700 3,420 Climbing FlightAware ADS-B
10:37AM 39.2827 -74.6281 224° Southwest 275 316 9,600 2,460 Climbing FlightAware ADS-B
10:38AM 39.2528 -74.6670 225° Southwest 278 320 10,700 1,920 Climbing FlightAware ADS-B
10:38AM 39.2440 -74.6843 237° Southwest 315 362 11,000 2,340 Climbing FlightAware ADS-B
10:38AM 39.2250 -74.7303 242° Southwest 323 372 12,200 2,940 Climbing FlightAware ADS-B
10:39AM 39.2037 -74.7827 242° Southwest 311 358 13,900 2,460 Climbing FlightAware ADS-B
10:40AM 39.1811 -74.8413 244° Southwest 336 387 14,900 1,680 Climbing FlightAware ADS-B
10:40AM 39.1532 -74.9128 243° Southwest 347 399 16,000 1,020 Climbing FlightAware ADS-B
10:41AM 39.1290 -74.9750 243° Southwest 351 404 16,200 360 Climbing FlightAware
10:41AM 39.1196 -75.0007 245° Southwest 352 405 16,300 540 Climbing FlightAware ADS-B
10:41AM 39.0977 -75.0581 244° Southwest 353 406 16,600 420 Climbing FlightAware ADS-B
10:42AM 39.0750 -75.1194 245° Southwest 348 400 16,800 420 Climbing FlightAware ADS-B
10:42AM 39.0617 -75.1544 244° Southwest 345 397 17,000 300 Climbing FlightAware ADS-B
10:43AM 39.0435 -75.1810 229° Southwest 341 392 17,000  Level FlightAware ADS-B
10:43AM 39.0328 -75.1898 213° Southwest 342 394 17,000  Level FlightAware ADS-B
10:43AM 39.0262 -75.1937 205° Southwest 342 394 17,000  Level FlightAware ADS-B
10:43AM 39.0217 -75.1960 202° Southwest 343 395 17,000 1,620 Level FlightAware ADS-B
10:43AM 38.9702 -75.2203 200° South 349 402 18,000 1,800 Climbing FlightAware ADS-B
10:44AM 38.9237 -75.2425 200° South 356 410 19,000 1,920 Climbing FlightAware ADS-B
10:44AM 38.8784 -75.2635 200° South 324 373 20,000 840 Climbing FlightAware ADS-B
10:45AM 38.8272 -75.2874 200° South 314 361 20,000 660 Level FlightAware ADS-B
10:46AM 38.7869 -75.3062 200° South 316 364 20,800 1,740 Climbing FlightAware ADS-B
10:46AM 38.7439 -75.3261 200° South 322 371 21,800 1,320 Climbing FlightAware ADS-B
10:47AM 38.6950 -75.3490 200° South 345 397 22,300 780 Climbing FlightAware
10:47AM 38.6320 -75.3790 200° South 375 432 22,800 840 Climbing FlightAware
10:48AM 38.5540 -75.4150 200° South 391 450 23,500 1,140 Climbing FlightAware
10:49AM 38.4780 -75.4500 200° South 409 471 24,500 1,260 Climbing FlightAware
10:49AM 38.4190 -75.4770 200° South 409 471 25,200 1,260 Climbing FlightAware
10:50AM 38.3260 -75.5320 205° Southwest 415 478 26,300 1,320 Climbing FlightAware
10:51AM 38.2630 -75.5880 215° Southwest 421 484 27,200 1,260 Climbing FlightAware
10:52AM 38.2030 -75.6450 217° Southwest 424 488 28,100 1,320 Climbing FlightAware
10:52AM 38.1141 -75.7284 216° Southwest 427 491 29,300 1,380 Climbing FlightAware ADS-B
10:53AM 38.0663 -75.7732 216° Southwest 427 491 30,000 1,260 Climbing FlightAware ADS-B
10:53AM 38.0397 -75.7951 213° Southwest 429 494 30,300 1,380 Climbing FlightAware ADS-B
10:54AM 37.9777 -75.8375 208° Southwest 427 491 31,200 1,320 Climbing FlightAware ADS-B
10:54AM 37.9246 -75.8740 208° Southwest 427 491 31,800 720 Climbing FlightAware ADS-B
10:55AM 37.8685 -75.9125 208° Southwest 425 489 32,000 120 Climbing FlightAware ADS-B
10:56AM 37.8310 -75.9380 208° Southwest 423 487 32,000  Level FlightAware
10:57AM 37.7090 -76.0220 209° Southwest 419 482 32,000  Level FlightAware
10:57AM 37.6430 -76.0660 208° Southwest 424 488 32,000  Level FlightAware
10:58AM 37.5658 -76.1182 208° Southwest 427 491 32,000  Level FlightAware ADS-B
10:58AM 37.5103 -76.1559 208° Southwest 430 495 32,000  Level FlightAware ADS-B
10:59AM 37.4563 -76.1925 208° Southwest 431 496 32,000  Level FlightAware ADS-B
10:59AM 37.3977 -76.2319 208° Southwest 431 496 32,000 480 Level FlightAware ADS-B
11:00AM 37.3387 -76.2716 208° Southwest 430 495 32,600 1,020 Climbing FlightAware ADS-B
11:01AM 37.2490 -76.3320 208° Southwest 427 491 33,600 1,080 Climbing FlightAware
11:01AM 37.2065 -76.3605 208° Southwest 430 495 34,000 240 Climbing FlightAware ADS-B
11:02AM 37.0910 -76.4380 208° Southwest 418 481 34,000  Level FlightAware
11:03AM 37.0210 -76.4840 208° Southwest 418 481 34,000  Level FlightAware
11:04AM 36.9460 -76.5350 209° Southwest 418 481 34,000  Level FlightAware
11:04AM 36.8770 -76.5800 208° Southwest 418 481 34,000  Level FlightAware
11:05AM 36.8030 -76.6300 208° Southwest 419 482 34,000  Level FlightAware
11:06AM 36.7360 -76.6740 208° Southwest 419 482 34,000  Level FlightAware
11:07AM 36.6680 -76.7180 207° Southwest 34,000  Level FlightAware
11:07AM 36.5930 -76.7670 208° Southwest 420 483 34,000  Level FlightAware
11:08AM 36.5410 -76.8000 207° Southwest 420 483 34,000  Level FlightAware
11:09AM 36.4450 -76.8650 209° Southwest 423 487 34,000  Level FlightAware
11:09AM 36.3870 -76.9030 208° Southwest 417 480 34,000  Level FlightAware
11:10AM 36.3230 -76.9450 208° Southwest 417 480 34,000  Level FlightAware
11:11AM 36.2570 -76.9890 208° Southwest 417 480 34,000  Level FlightAware
11:12AM 36.1890 -77.0340 208° Southwest 417 480 34,000  Level FlightAware
11:12AM 36.1360 -77.0680 207° Southwest 417 480 34,000  Level FlightAware
11:13AM 36.0520 -77.1230 208° Southwest 417 480 34,000  Level FlightAware
11:14AM 35.9070 -77.2150 207° Southwest 420 483 34,000  Level FlightAware
11:15AM 35.8160 -77.3000 217° Southwest 422 486 34,000  Level FlightAware
11:16AM 35.7400 -77.3730 218° Southwest 422 486 34,000  Level FlightAware
11:16AM 35.6680 -77.4440 219° Southwest 420 483 34,000  Level FlightAware
11:17AM 35.6170 -77.4930 218° Southwest 420 483 34,000  Level FlightAware
11:18AM 35.5700 -77.5380 218° Southwest 420 483 34,000  Level FlightAware
11:19AM 35.5080 -77.5980 218° Southwest 420 483 34,000  Level FlightAware
11:19AM 35.4480 -77.6550 218° Southwest 420 483 34,000  Level FlightAware
11:20AM 35.4000 -77.7010 218° Southwest 420 483 34,000  Level FlightAware
11:21AM 35.3430 -77.7560 218° Southwest 420 483 34,000  Level FlightAware
11:21AM 35.2960 -77.8010 218° Southwest 420 483 34,000  Level FlightAware
11:22AM 35.2320 -77.8620 218° Southwest 420 483 34,000  Level FlightAware
11:23AM 35.1810 -77.9100 218° Southwest 420 483 34,000  Level FlightAware
11:23AM 35.1340 -77.9550 218° Southwest 420 483 34,000  Level FlightAware
11:24AM 35.0710 -78.0160 218° Southwest 420 483 34,000  Level FlightAware
11:25AM 35.0200 -78.0640 218° Southwest 420 483 34,000  Level FlightAware
11:26AM 34.9380 -78.1430 218° Southwest 420 483 34,000  Level FlightAware
11:26AM 34.7390 -78.3380 219° Southwest 428 493 34,000  Level FlightAware
11:28AM 34.6360 -78.4360 218° Southwest 428 493 34,000  Level FlightAware
11:28AM 34.5890 -78.4800 218° Southwest 428 493 34,000  Level FlightAware
11:29AM 34.5260 -78.5400 218° Southwest 428 493 34,000  Level FlightAware
11:30AM 34.4780 -78.5850 218° Southwest 428 493 34,000  Level FlightAware
11:30AM 35.2370 -77.8620 38° Northeast 34,000  Level FlightAware
11:31AM 34.3010 -78.7490 218° Southwest 427 491 34,000  Level FlightAware
11:32AM 34.2870 -78.7620 217° Southwest 427 491 34,000  Level FlightAware
11:32AM 34.1720 -78.8710 218° Southwest 428 493 34,000  Level FlightAware
11:33AM 34.1020 -78.9360 218° Southwest 427 491 34,000  Level FlightAware
11:34AM 34.0300 -79.0030 218° Southwest 429 494 34,000  Level FlightAware
11:35AM 33.9750 -79.0540 218° Southwest 431 496 34,000  Level FlightAware
11:36AM 33.8810 -79.1400 217° Southwest 432 497 34,000  Level FlightAware
11:36AM 33.8120 -79.2030 217° Southwest 434 499 34,000  Level FlightAware
11:37AM 33.7450 -79.2660 218° Southwest 435 501 34,000  Level FlightAware
11:38AM 33.6810 -79.3240 217° Southwest 433 498 34,000  Level FlightAware
11:38AM 33.6120 -79.3870 217° Southwest 432 497 34,000  Level FlightAware
11:39AM 33.5460 -79.4480 218° Southwest 431 496 34,000  Level FlightAware
11:40AM 33.4610 -79.5250 217° Southwest 433 498 34,000  Level FlightAware
11:41AM 33.3870 -79.5930 218° Southwest 435 501 34,000  Level FlightAware
11:41AM 33.3250 -79.6550 220° Southwest 435 501 34,000  Level FlightAware
11:42AM 33.2600 -79.7280 223° Southwest 436 502 34,000  Level FlightAware
11:43AM 33.2060 -79.7850 221° Southwest 436 502 34,000  Level FlightAware
11:43AM 33.1380 -79.8580 222° Southwest 436 502 34,000  Level FlightAware
11:44AM 33.0800 -79.9200 222° Southwest 436 502 34,000  Level FlightAware
11:45AM 33.0200 -79.9840 222° Southwest 436 502 34,000  Level FlightAware
11:46AM 32.9290 -80.0800 222° Southwest 436 502 34,000  Level FlightAware
11:46AM 32.8990 -80.1120 222° Southwest 436 502 34,000  Level FlightAware
11:47AM 32.8250 -80.1900 222° Southwest 437 503 34,000  Level FlightAware
11:48AM 32.7560 -80.2620 221° Southwest 437 503 34,000  Level FlightAware
11:48AM 32.6960 -80.3260 222° Southwest 437 503 34,000  Level FlightAware
11:49AM 32.6390 -80.3850 221° Southwest 437 503 34,000  Level FlightAware
11:50AM 32.5690 -80.4590 222° Southwest 437 503 34,000  Level FlightAware
11:50AM 32.5070 -80.5240 221° Southwest 435 501 34,000  Level FlightAware
11:51AM 32.4380 -80.5950 221° Southwest 437 503 34,000 -480 Level FlightAware
11:52AM 32.3770 -80.6590 222° Southwest 437 503 33,400 -1,020 Descending FlightAware
11:53AM 32.3170 -80.7210 221° Southwest 442 509 32,700 -1,020 Descending FlightAware
11:53AM 32.2470 -80.7930 221° Southwest 438 504 32,000 -540 Descending FlightAware
11:54AM 32.1900 -80.8520 221° Southwest 439 505 32,000  Level FlightAware
11:55AM 32.1290 -80.9160 222° Southwest 438 504 32,000  Level FlightAware
11:55AM 32.0630 -80.9840 221° Southwest 438 504 32,000  Level FlightAware
11:56AM 32.0060 -81.0430 221° Southwest 438 504 32,000  Level FlightAware
11:57AM 31.9430 -81.1070 221° Southwest 440 506 32,000  Level FlightAware
11:58AM 31.8750 -81.1770 221° Southwest 441 507 32,000  Level FlightAware
11:58AM 31.8170 -81.2360 221° Southwest 440 506 32,000  Level FlightAware
11:59AM 31.7490 -81.3060 221° Southwest 441 507 32,000  Level FlightAware
12:00PM 31.6600 -81.3970 221° Southwest 443 510 32,000  Level FlightAware
12:01PM 31.6020 -81.4560 221° Southwest 444 511 32,000  Level FlightAware
12:01PM 31.5410 -81.5180 221° Southwest 445 512 32,000  Level FlightAware
12:02PM 31.4730 -81.5860 220° Southwest 445 512 32,000  Level FlightAware
12:03PM 31.4060 -81.6540 221° Southwest 445 512 32,000  Level FlightAware
12:04PM 31.3540 -81.7060 221° Southwest 445 512 32,000  Level FlightAware
12:04PM 31.3020 -81.7580 221° Southwest 445 512 32,000  Level FlightAware
12:05PM 31.2440 -81.8140 220° Southwest 445 512 32,000  Level FlightAware
12:05PM 31.2040 -81.8540 221° Southwest 445 512 32,000  Level FlightAware
12:06PM 31.1400 -81.9170 220° Southwest 445 512 32,000  Level FlightAware
12:07PM 31.0930 -81.9630 220° Southwest 445 512 32,000  Level FlightAware
12:08PM 31.0310 -82.0230 220° Southwest 445 512 32,000  Level FlightAware
12:08PM 30.9800 -82.0730 220° Southwest 445 512 32,000  Level FlightAware
12:09PM 30.9150 -82.1370 220° Southwest 445 512 32,000  Level FlightAware
12:10PM 30.8690 -82.1820 220° Southwest 445 512 32,000  Level FlightAware
12:11PM 30.7830 -82.2660 220° Southwest 445 512 32,000  Level FlightAware
12:11PM 30.7270 -82.3210 220° Southwest 445 512 32,000  Level FlightAware
12:12PM 30.6770 -82.3690 220° Southwest 445 512 32,000  Level FlightAware
12:13PM 30.5980 -82.4460 220° Southwest 445 512 32,000 -120 Level FlightAware
12:15PM 29.9150 -82.2750 168° South 444 511 31,700 -240 Descending FlightAware
12:16PM 29.8270 -82.2970 192° South 440 506 31,300 -1,500 Descending FlightAware
12:17PM 29.7260 -82.3230 193° South 420 483 29,300 -2,220 Descending FlightAware
12:18PM 29.6440 -82.3440 193° South 409 471 28,000 -1,920 Descending FlightAware
12:18PM 29.5760 -82.3570 189° South 403 464 26,800 -1,440 Descending FlightAware
12:19PM 29.4860 -82.3460 174° South 408 470 26,000 -1,800 Descending FlightAware
12:21PM 29.3270 -82.3280 174° South 421 484 22,900 -2,280 Descending FlightAware
12:21PM 29.2420 -82.3170 174° South 410 472 21,300 -2,160 Descending FlightAware
12:22PM 29.1670 -82.3080 174° South 397 457 20,000 -2,100 Descending FlightAware
12:23PM 29.0870 -82.2970 173° South 389 448 18,400 -2,160 Descending FlightAware
12:23PM 29.0230 -82.2730 162° South 383 441 17,100 -1,320 Descending FlightAware
12:24PM 28.9590 -82.2440 158° South 380 437 16,600 -1,980 Descending FlightAware
12:25PM 28.8890 -82.2020 152° Southeast 362 417 14,300 -2,580 Descending FlightAware
12:26PM 28.8270 -82.1630 151° Southeast 356 410 13,000 -1,020 Descending FlightAware
12:26PM 28.7630 -82.1360 160° South 348 400 12,900 -120 Descending FlightAware
12:27PM 28.7010 -82.1400 183° South 301 346 12,900 -720 Level FlightAware
12:28PM 28.6440 -82.1590 196° South 291 335 11,900 -1,380 Descending FlightAware
12:28PM 28.5930 -82.1810 201° Southwest 284 327 11,000 -1,500 Descending FlightAware
12:29PM 28.5430 -82.2040 202° Southwest 283 326 9,900 -1,620 Descending FlightAware
12:29PM 28.5090 -82.2220 205° Southwest 282 325 9,100 -1,620 Descending FlightAware
12:30PM 28.4760 -82.2420 208° Southwest 279 321 8,400 -1,080 Descending FlightAware
12:31PM 28.4580 -82.2540 210° Southwest 276 318 8,000 -1,980 Descending FlightAware
12:31PM 28.4140 -82.2830 210° Southwest 271 312 6,500 -2,640 Descending FlightAware
12:31PM 28.3850 -82.3020 210° Southwest 269 310 5,800 -780 Descending FlightAware
12:32PM 28.3520 -82.3240 210° Southwest 268 308 5,800  Level FlightAware
12:32PM 28.3340 -82.3350 208° Southwest 267 307 5,800 -180 Level FlightAware
12:33PM 28.3030 -82.3610 216° Southwest 267 307 5,700 -480 Descending FlightAware
12:33PM 28.2930 -82.3730 227° Southwest 263 303 5,500 -1,920 Descending FlightAware
12:33PM 28.2660 -82.4000 221° Southwest 257 296 4,400 -2,280 Descending FlightAware
12:34PM 28.2410 -82.4250 221° Southwest 261 300 3,300 -1,860 Descending FlightAware
12:34PM 28.2180 -82.4470 220° Southwest 267 307 2,800 -540 Descending FlightAware
12:35PM 28.1890 -82.4750 220° Southwest 259 298 2,800  Level FlightAware
12:36PM 28.1660 -82.4970 220° Southwest 240 276 2,800 -60 Level FlightAware
12:37PM 28.1370 -82.5220 217° Southwest 230 265 2,700 -780 Descending FlightAware
12:37PM 28.1050 -82.5240 183° South 217 250 2,100 -1,800 Descending FlightAware
12:38PM 28.0410 -82.5260 182° South 145 167 900 -1,680 Descending FlightAware
12:38PM 28.0260 -82.5270 183° South 141 162 600 -660 Descending FlightAware
12:38PM 28.0110 -82.5270 180° South 137 158 400 -660 Descending FlightAware
12:39PM 27.9960 -82.5280 183° South 137 158 100 -360 Descending FlightAware
12:39PM 27.9810 -82.5290 183° South 137 158 100  Level FlightAware